Time;durP1;ratioP1;P1;durP2;ratioP2;P2;SDS_P1;SDS_P2;PMS_P1;PMS_P2;Temp;Humidity;BMP_temperature;BMP_pressure;BME280_temperature;BME280_humidity;BME280_pressure;Samples;Min_cycle;Max_cycle;Signal;HPM_P1;HPM_P2
2022/01/07 00:01:40;;;;;;;8.25;0.30;;;;;;;8.92;86.01;100581.13;7388479;19;20017;-66
2022/01/07 00:04:07;;;;;;;10.50;0.50;;;;;;;8.90;86.03;100579.59;7391019;19;20748;-66
2022/01/07 00:06:34;;;;;;;6.32;0.55;;;;;;;8.82;85.80;100584.78;7391537;19;20453;-66
2022/01/07 00:09:02;;;;;;;4.25;0.60;;;;;;;8.79;85.76;100590.28;7388901;19;20074;-66
2022/01/07 00:11:30;;;;;;;2.70;0.25;;;;;;;8.77;85.21;100595.72;7391673;19;20014;-66
2022/01/07 00:13:57;;;;;;;6.85;0.40;;;;;;;8.76;84.25;100607.19;7390270;19;20018;-67
2022/01/07 00:16:24;;;;;;;3.25;0.30;;;;;;;8.72;84.40;100597.94;7392944;19;20010;-67
2022/01/07 00:18:52;;;;;;;7.53;0.30;;;;;;;8.72;83.60;100607.63;7389192;19;20010;-66
2022/01/07 00:21:20;;;;;;;1.92;0.20;;;;;;;8.70;83.36;100591.19;7389402;19;20429;-66
2022/01/07 00:23:49;;;;;;;5.38;0.30;;;;;;;8.69;83.47;100589.53;7389673;19;20467;-65
2022/01/07 00:26:16;;;;;;;4.05;0.40;;;;;;;8.72;83.71;100584.84;7393163;19;20003;-66
2022/01/07 00:28:43;;;;;;;2.90;0.52;;;;;;;8.75;84.55;100592.41;7391858;19;20022;-65
2022/01/07 00:31:10;;;;;;;4.10;0.40;;;;;;;8.79;84.13;100600.78;7390898;19;20098;-67
2022/01/07 00:33:38;;;;;;;4.68;0.30;;;;;;;8.83;83.27;100605.63;7394303;19;20414;-66
2022/01/07 00:36:06;;;;;;;2.00;0.20;;;;;;;8.83;82.64;100605.63;7386191;19;20364;-68
2022/01/07 00:38:33;;;;;;;4.30;0.38;;;;;;;8.82;81.47;100598.72;7389431;19;20046;-67
2022/01/07 00:41:00;;;;;;;5.50;0.30;;;;;;;8.85;81.78;100602.84;7392102;19;20007;-67
2022/01/07 00:43:27;;;;;;;1.80;0.10;;;;;;;8.87;81.10;100608.78;7392096;19;20109;-68
2022/01/07 00:45:55;;;;;;;3.40;0.60;;;;;;;8.89;81.59;100610.25;7390755;19;20018;-67
2022/01/07 00:48:22;;;;;;;4.65;0.40;;;;;;;8.83;80.05;100610.88;7392319;19;20011;-67
2022/01/07 00:50:49;;;;;;;3.13;0.20;;;;;;;8.79;79.01;100612.13;7390966;19;20015;-66
2022/01/07 00:53:17;;;;;;;3.72;0.55;;;;;;;8.80;79.98;100612.94;7390587;19;20014;-67
2022/01/07 00:55:44;;;;;;;3.95;1.08;;;;;;;8.78;79.59;100607.03;7393101;19;20070;-67
2022/01/07 00:58:11;;;;;;;5.05;0.20;;;;;;;8.73;79.26;100611.91;7387865;19;20017;-67
2022/01/07 01:00:39;;;;;;;1.02;0.17;;;;;;;8.64;77.35;100613.56;7389903;19;20015;-66
2022/01/07 01:03:06;;;;;;;2.90;0.25;;;;;;;8.61;78.63;100606.00;7385651;19;20014;-68
2022/01/07 01:05:33;;;;;;;2.88;0.20;;;;;;;8.58;78.63;100607.09;7392119;19;20102;-66
2022/01/07 01:08:01;;;;;;;1.77;0.30;;;;;;;8.54;78.03;100602.31;7390833;19;20014;-67
2022/01/07 01:10:28;;;;;;;4.93;0.50;;;;;;;8.49;79.04;100596.66;7393333;19;20364;-68
2022/01/07 01:12:56;;;;;;;1.92;0.20;;;;;;;8.44;79.06;100598.91;7387586;19;20627;-66
2022/01/07 01:15:25;;;;;;;2.50;0.20;;;;;;;8.39;79.22;100606.38;7390836;19;20006;-65
2022/01/07 01:17:55;;;;;;;3.72;0.10;;;;;;;8.35;79.60;100597.97;7391918;19;20411;-67
2022/01/07 01:20:23;;;;;;;2.83;0.40;;;;;;;8.33;79.80;100592.03;7392380;19;20014;-66
2022/01/07 01:22:50;;;;;;;2.53;0.20;;;;;;;8.33;80.16;100583.38;7386397;19;20449;-68
2022/01/07 01:25:18;;;;;;;0.55;0.00;;;;;;;8.29;80.11;100593.28;7388833;19;20070;-67
2022/01/07 01:27:45;;;;;;;1.80;0.35;;;;;;;8.25;79.46;100591.91;7388623;19;20122;-67
2022/01/07 01:30:17;;;;;;;2.22;0.60;;;;;;;8.22;80.00;100580.91;7392329;19;20010;-67
2022/01/07 01:32:47;;;;;;;2.22;0.20;;;;;;;8.18;80.59;100577.72;7388977;19;20034;-67
2022/01/07 01:35:16;;;;;;;0.70;0.00;;;;;;;8.17;80.57;100576.09;7388483;19;20066;-68
2022/01/07 01:37:44;;;;;;;2.88;0.30;;;;;;;8.16;80.35;100574.44;7389382;19;20028;-66
2022/01/07 01:40:12;;;;;;;3.85;1.05;;;;;;;8.13;80.44;100578.16;7389867;19;20452;-67
2022/01/07 01:42:40;;;;;;;3.00;0.20;;;;;;;8.13;81.27;100588.66;7387825;19;20002;-66
2022/01/07 01:45:10;;;;;;;1.40;0.10;;;;;;;8.06;80.73;100595.44;7392203;19;20011;-66
2022/01/07 01:47:38;;;;;;;3.53;0.60;;;;;;;8.05;80.94;100592.94;7388910;19;20090;-66
2022/01/07 01:50:06;;;;;;;2.85;0.28;;;;;;;8.04;81.86;100589.50;7390610;19;20011;-67
2022/01/07 01:52:34;;;;;;;1.63;0.10;;;;;;;8.04;81.87;100588.69;7385428;19;20070;-66
2022/01/07 01:55:04;;;;;;;1.27;0.43;;;;;;;8.03;81.19;100587.84;7390544;19;20070;-65
2022/01/07 01:57:32;;;;;;;5.85;0.40;;;;;;;8.01;81.38;100589.81;7387704;19;20058;-65
2022/01/07 01:59:59;;;;;;;3.80;0.40;;;;;;;7.99;81.42;100588.28;7388684;19;20015;-67
2022/01/07 02:02:27;;;;;;;5.30;1.10;;;;;;;7.93;80.71;100594.91;7389287;19;20079;-66
2022/01/07 02:04:55;;;;;;;5.63;0.30;;;;;;;7.91;80.97;100589.00;7389547;19;20017;-67
2022/01/07 02:07:26;;;;;;;1.15;0.10;;;;;;;7.94;81.19;100596.56;7389774;19;20042;-66
2022/01/07 02:09:55;;;;;;;1.60;0.45;;;;;;;7.94;81.20;100593.94;7389055;19;20470;-65
2022/01/07 02:12:22;;;;;;;5.43;0.35;;;;;;;8.00;82.09;100589.94;7386417;19;20086;-67
2022/01/07 02:14:52;;;;;;;4.75;0.35;;;;;;;8.00;80.89;100595.19;7387185;19;20510;-69
2022/01/07 02:17:20;;;;;;;3.00;0.68;;;;;;;8.00;81.62;100593.38;7388031;19;20017;-66
2022/01/07 02:19:48;;;;;;;2.08;0.30;;;;;;;8.01;80.99;100591.59;7389384;19;20035;-66
2022/01/07 02:22:17;;;;;;;2.50;0.35;;;;;;;7.97;80.05;100590.22;7389615;19;20074;-66
2022/01/07 02:24:47;;;;;;;4.93;0.20;;;;;;;7.94;80.03;100593.13;7386026;19;20010;-65
2022/01/07 02:27:15;;;;;;;4.40;0.30;;;;;;;7.92;80.88;100590.66;7389674;19;20078;-66
2022/01/07 02:29:47;;;;;;;3.88;0.40;;;;;;;7.89;80.13;100590.09;7385888;19;20019;-66
2022/01/07 02:32:14;;;;;;;4.25;0.20;;;;;;;7.85;79.90;100583.50;7385837;19;20077;-68
2022/01/07 02:34:41;;;;;;;2.55;0.20;;;;;;;7.86;80.43;100579.91;7387713;19;20019;-67
2022/01/07 02:37:09;;;;;;;4.30;1.20;;;;;;;7.87;80.95;100577.16;7386048;19;20003;-67
2022/01/07 02:39:36;;;;;;;5.45;0.32;;;;;;;7.89;81.11;100580.44;7386134;19;20070;-66
2022/01/07 02:42:04;;;;;;;7.32;0.30;;;;;;;7.88;80.25;100573.56;7393087;19;20689;-67
2022/01/07 02:44:32;;;;;;;7.18;0.32;;;;;;;7.83;80.38;100570.53;7394450;19;20021;-67
2022/01/07 02:46:59;;;;;;;3.78;0.30;;;;;;;7.83;80.42;100574.94;7392699;19;20399;-67
2022/01/07 02:49:27;;;;;;;5.45;0.40;;;;;;;7.83;80.09;100572.31;7395209;19;20034;-66
2022/01/07 02:51:54;;;;;;;6.28;0.80;;;;;;;7.81;80.41;100569.03;7394096;19;20031;-66
2022/01/07 02:54:21;;;;;;;1.65;0.55;;;;;;;7.80;80.77;100562.97;7394730;19;20017;-66
2022/01/07 02:56:48;;;;;;;3.72;0.32;;;;;;;7.78;80.18;100564.88;7395857;19;20102;-67
2022/01/07 02:59:16;;;;;;;1.77;0.10;;;;;;;7.79;81.27;100561.31;7392226;19;20082;-67
2022/01/07 03:01:43;;;;;;;7.40;0.40;;;;;;;7.81;80.79;100559.38;7396633;19;20090;-66
2022/01/07 03:04:10;;;;;;;5.43;0.20;;;;;;;7.77;80.08;100563.25;7393806;19;20468;-67
2022/01/07 03:06:38;;;;;;;4.68;0.20;;;;;;;7.73;80.63;100556.63;7392750;19;20021;-66
2022/01/07 03:09:06;;;;;;;2.72;0.10;;;;;;;7.72;80.83;100552.34;7392688;19;20821;-67
2022/01/07 03:11:34;;;;;;;6.20;0.20;;;;;;;7.68;80.65;100557.06;7396825;19;20098;-66
2022/01/07 03:14:01;;;;;;;5.13;0.20;;;;;;;7.67;80.71;100565.03;7395320;19;20025;-66
2022/01/07 03:16:28;;;;;;;3.95;0.60;;;;;;;7.65;81.39;100561.75;7396374;19;20014;-66
2022/01/07 03:18:55;;;;;;;7.18;0.28;;;;;;;7.66;81.80;100552.94;7394989;19;20329;-65
2022/01/07 03:21:23;;;;;;;4.00;0.45;;;;;;;7.65;81.05;100549.50;7395142;19;20014;-66
2022/01/07 03:23:50;;;;;;;10.88;1.60;;;;;;;7.64;81.18;100553.06;7394842;19;20093;-66
2022/01/07 03:26:17;;;;;;;4.20;0.40;;;;;;;7.65;81.42;100543.44;7395235;19;20011;-66
2022/01/07 03:28:47;;;;;;;6.35;0.38;;;;;;;7.63;81.02;100542.75;7392136;19;20487;-66
2022/01/07 03:31:14;;;;;;;1.63;0.43;;;;;;;7.65;80.67;100543.44;7394766;19;20006;-65
2022/01/07 03:33:41;;;;;;;5.45;0.38;;;;;;;7.64;81.21;100532.13;7391509;19;20360;-66
2022/01/07 03:36:09;;;;;;;4.75;0.40;;;;;;;7.66;81.79;100529.38;7390099;19;20011;-66
2022/01/07 03:38:36;;;;;;;4.80;0.20;;;;;;;7.69;81.45;100536.94;7393300;19;20479;-66
2022/01/07 03:41:04;;;;;;;6.32;0.68;;;;;;;7.70;81.54;100533.38;7393809;19;20135;-66
2022/01/07 03:43:31;;;;;;;3.15;0.88;;;;;;;7.73;81.75;100544.38;7390165;19;20765;-67
2022/01/07 03:45:59;;;;;;;8.07;0.75;;;;;;;7.72;80.73;100534.84;7391285;19;20011;-66
2022/01/07 03:48:26;;;;;;;4.30;0.40;;;;;;;7.64;79.86;100529.50;7390916;19;20015;-65
2022/01/07 03:50:53;;;;;;;3.17;0.15;;;;;;;7.68;80.45;100522.19;7393944;19;20199;-66
2022/01/07 03:53:24;;;;;;;3.80;0.68;;;;;;;7.73;81.42;100539.13;7389201;19;20066;-67
2022/01/07 03:55:52;;;;;;;4.30;1.08;;;;;;;7.72;80.97;100534.84;7392443;19;20070;-66
2022/01/07 03:58:21;;;;;;;2.60;0.20;;;;;;;7.69;80.31;100540.38;7391643;19;20009;-66
2022/01/07 04:00:49;;;;;;;6.65;0.50;;;;;;;7.68;80.30;100543.13;7392415;19;20071;-66
2022/01/07 04:03:17;;;;;;;6.70;0.40;;;;;;;7.63;79.99;100538.34;7392930;19;20010;-66
2022/01/07 04:05:45;;;;;;;5.20;0.50;;;;;;;7.59;79.51;100552.69;7390354;19;20492;-67
2022/01/07 04:08:13;;;;;;;11.18;2.95;;;;;;;7.61;81.39;100553.38;7390286;19;20031;-67
2022/01/07 04:10:40;;;;;;;4.03;0.20;;;;;;;7.64;81.89;100553.06;7393508;19;20021;-66
2022/01/07 04:13:07;;;;;;;12.55;1.95;;;;;;;7.59;80.96;100549.22;7392125;19;20464;-67
2022/01/07 04:15:35;;;;;;;5.97;0.82;;;;;;;7.58;81.45;100542.34;7394350;19;20324;-66
2022/01/07 04:18:04;;;;;;;5.93;0.65;;;;;;;7.58;81.29;100543.16;7392466;19;20190;-66
2022/01/07 04:20:35;;;;;;;5.82;0.20;;;;;;;7.58;80.85;100543.16;7391457;19;20011;-67
2022/01/07 04:23:07;;;;;;;4.85;0.20;;;;;;;7.56;80.88;100536.44;7388980;19;20015;-67
2022/01/07 04:25:34;;;;;;;9.32;0.20;;;;;;;7.53;81.06;100539.31;7390839;19;20030;-67
2022/01/07 04:28:04;;;;;;;6.40;0.95;;;;;;;7.54;81.21;100538.34;7390766;19;20011;-66
2022/01/07 04:30:35;;;;;;;6.03;0.38;;;;;;;7.49;80.10;100540.56;7392521;19;20031;-67
2022/01/07 04:33:04;;;;;;;7.00;0.40;;;;;;;7.47;80.51;100529.41;7393107;19;20484;-67
2022/01/07 04:35:33;;;;;;;5.22;0.30;;;;;;;7.46;80.49;100515.50;7389074;19;20042;-66
2022/01/07 04:38:01;;;;;;;4.28;0.50;;;;;;;7.46;80.19;100515.50;7395137;19;20018;-67
2022/01/07 04:40:27;;;;;;;2.88;0.20;;;;;;;7.43;80.95;100520.19;7393995;19;20524;-67
2022/01/07 04:42:54;;;;;;;6.97;0.80;;;;;;;7.44;80.66;100522.66;7392557;19;20015;-67
2022/01/07 04:45:21;;;;;;;5.93;0.80;;;;;;;7.39;80.07;100524.06;7394673;19;20030;-68
2022/01/07 04:47:48;;;;;;;5.43;0.20;;;;;;;7.39;80.56;100537.13;7388678;19;20370;-66
2022/01/07 04:50:17;;;;;;;6.55;0.35;;;;;;;7.36;80.32;100545.28;7388881;19;20036;-66
2022/01/07 04:52:45;;;;;;;5.97;0.30;;;;;;;7.35;80.31;100530.53;7391885;19;20011;-67
2022/01/07 04:55:15;;;;;;;5.05;1.05;;;;;;;7.37;81.23;100524.19;7389361;19;20046;-67
2022/01/07 04:57:43;;;;;;;7.50;0.20;;;;;;;7.39;81.32;100526.66;7389765;19;20003;-65
2022/01/07 05:00:13;;;;;;;4.45;0.50;;;;;;;7.38;80.47;100525.84;7388482;19;20039;-67
2022/01/07 05:02:40;;;;;;;3.30;0.40;;;;;;;7.33;79.67;100530.66;7390890;19;20038;-68
2022/01/07 05:05:07;;;;;;;3.60;0.20;;;;;;;7.29;79.98;100540.59;7389959;19;20003;-67
2022/01/07 05:07:36;;;;;;;3.58;0.30;;;;;;;7.30;79.80;100541.41;7391649;19;20046;-66
2022/01/07 05:10:06;;;;;;;5.18;0.40;;;;;;;7.29;80.00;100530.13;7392701;19;20014;-67
2022/01/07 05:12:33;;;;;;;3.30;0.35;;;;;;;7.28;80.20;100528.47;7390080;19;20018;-66
2022/01/07 05:15:00;;;;;;;3.92;0.30;;;;;;;7.26;79.31;100538.22;7391611;19;20015;-66
2022/01/07 05:17:27;;;;;;;3.88;0.60;;;;;;;7.23;79.21;100537.69;7388401;19;20007;-65
2022/01/07 05:19:54;;;;;;;3.40;0.30;;;;;;;7.22;79.43;100534.25;7393580;19;20007;-66
2022/01/07 05:22:21;;;;;;;6.43;0.30;;;;;;;7.20;78.27;100538.81;7387494;19;20014;-65
2022/01/07 05:24:48;;;;;;;2.65;0.30;;;;;;;7.18;78.46;100532.06;7389498;19;20560;-66
2022/01/07 05:27:14;;;;;;;4.00;0.10;;;;;;;7.17;78.10;100533.84;7391692;19;20375;-66
2022/01/07 05:29:41;;;;;;;1.90;0.20;;;;;;;7.17;78.62;100533.84;7391514;19;20007;-67
2022/01/07 05:32:08;;;;;;;3.60;0.30;;;;;;;7.15;78.52;100540.19;7393432;19;20360;-67
2022/01/07 05:34:35;;;;;;;3.22;0.38;;;;;;;7.15;79.04;100541.03;7386221;19;20034;-68
2022/01/07 05:37:03;;;;;;;7.30;0.63;;;;;;;7.15;78.92;100540.19;7389870;19;20018;-67
2022/01/07 05:39:30;;;;;;;5.18;0.20;;;;;;;7.15;78.79;100540.19;7388214;19;20011;-67
2022/01/07 05:41:58;;;;;;;7.50;0.30;;;;;;;7.15;78.84;100537.56;7388969;19;20050;-67
2022/01/07 05:44:25;;;;;;;10.65;1.35;;;;;;;7.17;79.23;100540.84;7388228;19;20128;-66
2022/01/07 05:46:52;;;;;;;4.00;0.38;;;;;;;7.21;79.64;100555.34;7388398;19;20333;-67
2022/01/07 05:49:19;;;;;;;3.13;0.20;;;;;;;7.18;79.85;100552.97;7387178;19;20007;-66
2022/01/07 05:51:46;;;;;;;9.05;3.88;;;;;;;7.21;81.21;100556.13;7391244;19;20010;-67
2022/01/07 05:54:12;;;;;;;7.90;0.80;;;;;;;7.25;81.85;100544.47;7387242;19;20006;-67
2022/01/07 05:56:39;;;;;;;4.20;0.20;;;;;;;7.22;80.71;100547.34;7391013;19;20372;-68
2022/01/07 05:59:06;;;;;;;1.77;0.25;;;;;;;7.20;80.06;100540.59;7386815;19;20011;-67
2022/01/07 06:01:33;;;;;;;3.88;0.30;;;;;;;7.16;78.82;100547.88;7387526;19;20036;-67
2022/01/07 06:04:00;;;;;;;2.78;0.20;;;;;;;7.15;79.07;100543.63;7385769;19;20029;-67
2022/01/07 06:06:27;;;;;;;2.72;0.43;;;;;;;7.12;78.71;100551.75;7391632;19;20018;-67
2022/01/07 06:08:54;;;;;;;2.03;0.20;;;;;;;7.10;78.74;100561.53;7390012;19;20046;-67
2022/01/07 06:11:21;;;;;;;1.00;0.17;;;;;;;7.06;78.43;100564.56;7388104;19;20468;-66
2022/01/07 06:13:47;;;;;;;2.00;0.20;;;;;;;7.03;78.22;100572.66;7386878;19;20014;-67
2022/01/07 06:16:14;;;;;;;2.80;0.10;;;;;;;7.01;77.91;100577.22;7391307;19;20014;-67
2022/01/07 06:21:19;;;;;;;3.03;0.20;;;;;;;6.95;77.18;100572.53;7394951;19;20038;-69
2022/01/07 06:23:46;;;;;;;6.15;0.20;;;;;;;6.95;77.73;100573.34;7396200;19;20010;-66
2022/01/07 06:26:12;;;;;;;0.90;0.05;;;;;;;6.87;77.15;100568.78;7397875;19;20010;-67
2022/01/07 06:28:39;;;;;;;3.20;0.17;;;;;;;6.88;78.15;100562.59;7395511;19;20019;-66
2022/01/07 06:31:06;;;;;;;2.40;0.10;;;;;;;6.91;77.99;100560.69;7397774;19;20014;-66
2022/01/07 06:33:33;;;;;;;1.70;0.03;;;;;;;6.89;77.06;100563.44;7397618;19;20047;-67
2022/01/07 06:36:00;;;;;;;2.88;0.10;;;;;;;6.93;77.53;100548.28;7391206;19;20021;-66
2022/01/07 06:38:27;;;;;;;1.33;0.00;;;;;;;6.87;77.09;100547.88;7392955;19;20030;-68
2022/01/07 06:40:53;;;;;;;1.58;0.05;;;;;;;6.86;76.85;100550.63;7395324;19;20038;-68
2022/01/07 06:43:20;;;;;;;3.38;0.10;;;;;;;6.86;77.25;100543.59;7394078;19;20527;-68
2022/01/07 06:45:47;;;;;;;0.63;0.10;;;;;;;6.87;77.43;100549.66;7397155;19;20014;-66
2022/01/07 06:48:14;;;;;;;5.05;0.47;;;;;;;6.91;77.44;100547.63;7396287;19;20037;-66
2022/01/07 06:50:42;;;;;;;2.08;0.10;;;;;;;6.92;77.59;100544.00;7395148;19;20035;-67
2022/01/07 06:53:09;;;;;;;3.10;0.10;;;;;;;6.91;77.50;100537.97;7393029;19;20568;-67
2022/01/07 06:55:54;;;;;;;1.40;0.10;;;;;;;6.91;77.25;100545.81;7396256;19;20689;-66
2022/01/07 06:58:21;;;;;;;1.08;0.00;;;;;;;6.90;77.56;100545.97;7397286;19;20034;-67
2022/01/07 07:00:48;;;;;;;0.90;0.43;;;;;;;6.88;77.21;100556.53;7395965;19;20034;-68
2022/01/07 07:03:15;;;;;;;3.53;0.20;;;;;;;6.81;76.72;100556.25;7397750;19;20407;-66
2022/01/07 07:05:42;;;;;;;1.85;0.10;;;;;;;6.81;76.78;100566.72;7393976;19;20388;-65
2022/01/07 07:08:10;;;;;;;2.38;0.13;;;;;;;6.78;78.04;100563.56;7391672;19;20523;-65
2022/01/07 07:10:36;;;;;;;8.07;0.10;;;;;;;6.79;78.16;100567.81;7396034;19;20046;-67
2022/01/07 07:13:03;;;;;;;4.03;0.17;;;;;;;6.80;78.07;100566.88;7391370;19;20031;-67
2022/01/07 07:15:30;;;;;;;2.40;0.43;;;;;;;6.82;77.48;100557.09;7394455;19;20475;-66
2022/01/07 07:17:57;;;;;;;0.70;0.10;;;;;;;6.83;78.64;100550.91;7391925;19;20030;-66
2022/01/07 07:20:24;;;;;;;4.00;0.20;;;;;;;6.80;78.02;100551.19;7394479;19;20011;-66
2022/01/07 07:22:51;;;;;;;2.17;0.10;;;;;;;6.81;77.68;100548.41;7395802;19;20030;-67
2022/01/07 07:25:20;;;;;;;3.30;0.10;;;;;;;6.82;77.71;100544.00;7394503;19;20010;-67
2022/01/07 07:27:47;;;;;;;4.15;0.10;;;;;;;6.78;77.89;100546.06;7391837;19;20042;-67
2022/01/07 07:30:13;;;;;;;4.80;0.10;;;;;;;6.77;77.90;100546.22;7396285;19;20047;-67
2022/01/07 07:32:40;;;;;;;5.60;0.20;;;;;;;6.77;77.99;100546.22;7394824;19;20031;-67
2022/01/07 07:37:44;;;;;;;1.50;0.10;;;;;;;6.84;78.67;100563.84;7393469;19;20582;-68
2022/01/07 07:40:14;;;;;;;1.30;0.20;;;;;;;6.83;78.13;100567.41;7390930;19;20011;-67
2022/01/07 07:42:42;;;;;;;4.05;0.32;;;;;;;6.82;78.34;100567.53;7390973;19;20348;-65
2022/01/07 07:45:13;;;;;;;4.22;0.10;;;;;;;6.82;78.07;100567.53;7395443;19;20011;-67
2022/01/07 07:47:43;;;;;;;3.85;0.20;;;;;;;6.80;77.46;100572.09;7392770;19;20038;-67
2022/01/07 07:50:13;;;;;;;4.00;0.10;;;;;;;6.76;77.05;100571.53;7393340;19;20006;-66
2022/01/07 07:52:40;;;;;;;3.00;0.10;;;;;;;6.74;77.77;100576.06;7392673;19;20009;-67
2022/01/07 07:55:08;;;;;;;2.08;0.20;;;;;;;6.77;77.71;100575.78;7395426;19;20675;-69
2022/01/07 07:57:34;;;;;;;0.98;0.30;;;;;;;6.78;77.67;100579.22;7395342;19;20127;-66
2022/01/07 08:00:03;;;;;;;1.90;0.17;;;;;;;6.79;79.31;100570.44;7393818;19;20010;-68
2022/01/07 08:02:31;;;;;;;2.40;0.20;;;;;;;6.81;78.33;100571.94;7393192;19;20007;-66
2022/01/07 08:04:58;;;;;;;5.47;0.30;;;;;;;6.82;78.17;100570.16;7389630;19;20447;-67
2022/01/07 08:07:25;;;;;;;2.60;0.20;;;;;;;6.83;79.05;100561.34;7391276;19;20010;-67
2022/01/07 08:09:53;;;;;;;3.97;0.28;;;;;;;6.81;77.89;100556.25;7391918;19;20384;-67
2022/01/07 08:12:26;;;;;;;3.95;0.40;;;;;;;6.84;79.17;100556.00;7392087;19;20027;-67
2022/01/07 08:17:29;;;;;;;3.45;0.20;;;;;;;6.82;78.68;100557.09;7391015;19;20675;-67
2022/01/07 08:19:56;;;;;;;1.75;0.30;;;;;;;6.83;78.18;100556.13;7389452;19;20030;-67
2022/01/07 08:22:23;;;;;;;7.72;1.20;;;;;;;6.83;77.78;100548.28;7394691;19;20622;-66
2022/01/07 08:24:50;;;;;;;2.92;0.30;;;;;;;6.85;79.18;100551.59;7391236;19;20042;-68
2022/01/07 08:27:20;;;;;;;0.95;0.10;;;;;;;6.82;78.53;100547.44;7393280;19;20030;-68
2022/01/07 08:30:10;;;;;;;0.95;0.10;;;;;;;6.78;77.29;100543.47;7389902;19;20384;-67
2022/01/07 08:35:13;;;;;;;2.47;0.10;;;;;;;6.78;77.95;100540.03;7390802;19;20018;-66
2022/01/07 08:37:40;;;;;;;4.18;0.50;;;;;;;6.80;77.40;100541.56;7390086;19;20138;-68
2022/01/07 08:40:08;;;;;;;2.90;0.30;;;;;;;6.78;77.12;100548.69;7390588;19;20007;-67
2022/01/07 08:42:38;;;;;;;4.35;0.35;;;;;;;6.81;78.08;100553.63;7389127;19;20428;-66
2022/01/07 08:45:05;;;;;;;2.15;0.20;;;;;;;6.84;78.19;100552.56;7391739;19;20014;-67
2022/01/07 08:47:32;;;;;;;1.92;0.10;;;;;;;6.82;77.50;100551.84;7388563;19;20045;-68
2022/01/07 08:49:59;;;;;;;1.75;0.40;;;;;;;6.82;77.57;100578.81;7389114;19;20011;-68
2022/01/07 08:52:26;;;;;;;3.55;0.20;;;;;;;6.86;78.11;100576.75;7373101;19;20347;-66
2022/01/07 08:54:53;;;;;;;3.35;0.10;;;;;;;6.87;77.56;100581.03;7383809;19;20007;-66
2022/01/07 08:57:21;;;;;;;0.98;0.10;;;;;;;6.89;77.07;100586.97;7392168;19;20018;-67
2022/01/07 08:59:49;;;;;;;1.00;0.10;;;;;;;6.87;76.49;100576.63;7391954;19;20309;-66
2022/01/07 09:02:15;;;;;;;2.30;0.22;;;;;;;6.83;76.33;100577.88;7391086;19;20361;-68
2022/01/07 09:04:42;;;;;;;3.35;0.45;;;;;;;6.80;76.43;100582.56;7390026;19;20025;-67
2022/01/07 09:07:09;;;;;;;4.18;0.68;;;;;;;6.78;77.09;100585.28;7391139;19;20154;-68
2022/01/07 09:09:37;;;;;;;4.03;0.20;;;;;;;6.78;77.22;100584.47;7392896;19;20011;-67
2022/01/07 09:12:09;;;;;;;2.83;0.30;;;;;;;6.77;77.08;100574.97;7392491;19;20017;-68
2022/01/07 09:14:39;;;;;;;3.50;0.10;;;;;;;6.78;76.97;100587.91;7393398;19;20010;-67
2022/01/07 09:17:09;;;;;;;3.35;0.20;;;;;;;6.81;78.03;100577.16;7393448;19;20010;-66
2022/01/07 09:19:36;;;;;;;2.83;0.10;;;;;;;6.86;78.04;100574.97;7391490;19;20030;-66
2022/01/07 09:22:04;;;;;;;1.58;0.20;;;;;;;6.87;77.38;100560.13;7392340;19;20010;-67
2022/01/07 09:24:31;;;;;;;2.78;0.15;;;;;;;6.91;77.16;100564.09;7388313;19;20050;-66
2022/01/07 09:26:58;;;;;;;4.20;0.22;;;;;;;6.88;76.09;100565.22;7391898;19;20503;-66
2022/01/07 09:29:27;;;;;;;4.18;0.40;;;;;;;6.91;76.84;100552.84;7390458;19;20014;-66
2022/01/07 09:31:55;;;;;;;5.00;0.30;;;;;;;6.99;77.21;100563.44;7389624;19;20074;-66
2022/01/07 09:34:22;;;;;;;3.03;0.20;;;;;;;7.03;76.84;100564.81;7388350;19;20010;-68
2022/01/07 09:36:55;;;;;;;5.35;0.20;;;;;;;7.06;76.09;100567.19;7390285;19;20042;-68
2022/01/07 09:39:23;;;;;;;3.08;0.30;;;;;;;7.04;75.42;100572.53;7390384;19;20019;-68
2022/01/07 09:41:50;;;;;;;3.00;0.20;;;;;;;7.01;75.52;100579.84;7389155;19;20041;-68
2022/01/07 09:44:17;;;;;;;3.55;0.13;;;;;;;7.01;75.83;100579.84;7390654;19;20030;-66
2022/01/07 09:46:44;;;;;;;3.88;0.70;;;;;;;7.03;76.03;100583.94;7390083;19;20041;-68
2022/01/07 09:49:11;;;;;;;2.55;0.13;;;;;;;7.05;75.51;100582.03;7389969;19;20405;-68
2022/01/07 09:51:39;;;;;;;4.93;0.30;;;;;;;7.04;75.39;100582.16;7386935;19;20014;-68
2022/01/07 09:54:07;;;;;;;4.78;0.63;;;;;;;7.05;75.65;100587.28;7389624;19;20031;-68
2022/01/07 09:56:35;;;;;;;2.75;0.20;;;;;;;7.02;75.24;100592.75;7387986;19;20006;-67
2022/01/07 09:59:05;;;;;;;2.33;0.30;;;;;;;7.04;75.69;100590.00;7390942;19;20030;-66
2022/01/07 10:01:51;;;;;;;2.30;0.20;;;;;;;7.06;75.85;100588.91;7387032;19;20062;-68
2022/01/07 10:04:32;;;;;;;3.05;0.28;;;;;;;7.09;75.87;100608.75;7388088;19;20034;-69
2022/01/07 10:07:23;;;;;;;7.90;0.30;;;;;;;7.16;76.82;100608.03;7389758;19;20015;-68
2022/01/07 10:10:02;;;;;;;5.22;0.32;;;;;;;7.18;76.17;100610.53;7387153;19;20009;-67
2022/01/07 10:12:32;;;;;;;2.83;0.50;;;;;;;7.18;75.77;100621.00;7388495;19;20014;-67
2022/01/07 10:15:16;;;;;;;2.72;0.30;;;;;;;7.20;75.53;100617.31;7389308;19;20010;-67
2022/01/07 10:17:55;;;;;;;0.98;0.10;;;;;;;7.20;74.70;100634.78;7385749;19;19998;-67
2022/01/07 10:20:25;;;;;;;4.60;0.20;;;;;;;7.24;74.92;100628.31;7388206;19;20033;-69
2022/01/07 10:22:56;;;;;;;2.33;0.20;;;;;;;7.27;74.37;100634.09;7389856;19;20653;-67
2022/01/07 10:25:26;;;;;;;6.55;0.30;;;;;;;7.27;74.50;100622.78;7388537;19;20011;-65
2022/01/07 10:28:00;;;;;;;3.15;0.30;;;;;;;7.28;74.13;100630.50;7388562;19;20015;-66
2022/01/07 10:30:32;;;;;;;2.53;0.75;;;;;;;7.35;75.13;100630.81;7387412;19;20070;-66
2022/01/07 10:33:23;;;;;;;3.15;0.20;;;;;;;7.37;74.57;100636.72;7390377;19;20019;-67
2022/01/07 10:35:56;;;;;;;3.88;0.22;;;;;;;7.43;73.95;100632.72;7385101;19;20003;-66
2022/01/07 10:38:28;;;;;;;2.53;0.65;;;;;;;7.46;73.61;100638.53;7389261;19;20010;-67
2022/01/07 10:41:00;;;;;;;3.38;0.30;;;;;;;7.53;72.90;100639.63;7391106;19;20010;-68
2022/01/07 10:43:33;;;;;;;3.45;0.28;;;;;;;7.54;72.25;100641.28;7389950;19;20018;-67
2022/01/07 10:46:11;;;;;;;7.40;0.25;;;;;;;7.58;72.27;100639.19;7388006;19;20267;-66
2022/01/07 10:48:40;;;;;;;2.50;0.32;;;;;;;7.65;73.36;100628.03;7387813;19;20103;-67
2022/01/07 10:51:11;;;;;;;4.43;0.20;;;;;;;7.72;72.01;100639.59;7390559;19;20459;-67
2022/01/07 10:53:39;;;;;;;5.13;0.73;;;;;;;7.80;71.79;100640.69;7389571;19;20006;-66
2022/01/07 10:56:14;;;;;;;1.02;0.10;;;;;;;7.82;71.58;100647.47;7385756;19;20018;-67
2022/01/07 10:58:51;;;;;;;2.63;0.20;;;;;;;7.88;70.54;100639.03;7389210;19;20034;-67
2022/01/07 11:01:19;;;;;;;4.97;0.77;;;;;;;7.86;70.03;100634.91;7390593;19;20015;-65
2022/01/07 11:03:50;;;;;;;2.53;0.10;;;;;;;7.85;70.05;100615.75;7394007;19;20086;-67
2022/01/07 11:06:17;;;;;;;3.30;0.20;;;;;;;7.86;70.66;100595.63;7394836;19;20010;-66
2022/01/07 11:08:47;;;;;;;3.00;0.30;;;;;;;7.88;70.66;100599.75;7393865;19;20010;-67
2022/01/07 11:11:15;;;;;;;1.67;0.20;;;;;;;7.95;70.59;100621.78;7395954;19;20317;-67
2022/01/07 11:13:42;;;;;;;3.50;0.20;;;;;;;7.96;70.44;100620.84;7395538;19;20048;-66
2022/01/07 11:16:09;;;;;;;3.25;0.20;;;;;;;7.99;70.00;100636.25;7392715;19;20333;-68
2022/01/07 11:18:38;;;;;;;5.38;0.30;;;;;;;8.01;69.63;100625.66;7395661;19;20552;-68
2022/01/07 11:21:06;;;;;;;6.35;0.20;;;;;;;8.02;69.31;100638.63;7394700;19;20003;-66
2022/01/07 11:23:37;;;;;;;1.85;0.15;;;;;;;8.07;70.49;100640.81;7395162;19;20006;-67
2022/01/07 11:26:05;;;;;;;2.10;0.25;;;;;;;8.12;68.99;100625.50;7393349;19;20044;-67
2022/01/07 11:28:33;;;;;;;2.65;0.25;;;;;;;8.12;68.41;100626.31;7395236;19;20078;-65
2022/01/07 11:31:09;;;;;;;4.97;0.73;;;;;;;8.11;67.97;100615.97;7394700;19;20010;-66
2022/01/07 11:33:37;;;;;;;3.35;0.30;;;;;;;8.11;68.82;100608.94;7395673;19;20010;-68
2022/01/07 11:36:04;;;;;;;5.25;0.20;;;;;;;8.12;69.13;100596.66;7390158;19;20046;-67
2022/01/07 11:38:33;;;;;;;1.83;0.20;;;;;;;8.12;68.77;100605.34;7392939;19;20034;-67
2022/01/07 11:41:01;;;;;;;5.50;0.30;;;;;;;8.11;68.38;100601.06;7394526;19;20011;-66
2022/01/07 11:43:39;;;;;;;2.35;0.20;;;;;;;8.13;68.52;100601.75;7394975;19;20385;-66
2022/01/07 11:46:21;;;;;;;3.58;0.20;;;;;;;8.18;68.79;100597.91;7392741;19;20002;-67
2022/01/07 11:48:48;;;;;;;2.80;0.52;;;;;;;8.21;68.69;100594.97;7394767;19;20030;-70
2022/01/07 11:51:17;;;;;;;5.35;0.20;;;;;;;8.25;69.21;100575.38;7392815;19;20630;-66